Time;durP1;ratioP1;P1;durP2;ratioP2;P2;SDS_P1;SDS_P2;PMS_P1;PMS_P2;Temp;Humidity;BMP_temperature;BMP_pressure;BME280_temperature;BME280_humidity;BME280_pressure;Samples;Min_cycle;Max_cycle;Signal;HPM_P1;HPM_P2
2022/01/11 00:01:20;;;;;;;121.75;42.88;;;;;;;0.90;100.00;102746.19;5027578;28;20024;-75
2022/01/11 00:03:46;;;;;;;118.05;40.60;;;;;;;0.80;100.00;102733.31;5036102;28;20490;-76
2022/01/11 00:09:00;;;;;;;115.25;40.72;;;;;;;0.87;100.00;102762.91;5045837;28;20649;-75
2022/01/11 00:11:26;;;;;;;109.93;39.35;;;;;;;0.74;100.00;102743.19;5027310;28;20470;-76
2022/01/11 00:13:52;;;;;;;107.50;38.72;;;;;;;0.70;100.00;102739.78;5052768;28;20025;-76
2022/01/11 00:16:18;;;;;;;124.07;45.95;;;;;;;0.73;100.00;102746.72;5027921;28;20040;-76
2022/01/11 00:18:43;;;;;;;101.45;38.35;;;;;;;0.76;100.00;102765.03;5027909;28;20040;-76
2022/01/11 00:21:08;;;;;;;97.65;35.95;;;;;;;0.78;100.00;102771.97;5023837;28;20686;-76
2022/01/11 00:26:00;;;;;;;;;;;;;;;0.83;100.00;102777.06;5044593;28;20036;-76
2022/01/11 00:28:27;;;;;;;104.90;37.33;;;;;;;0.82;100.00;102764.84;5044633;28;20277;-75
2022/01/11 00:31:15;;;;;;;87.25;33.20;;;;;;;0.76;100.00;102747.47;5024543;28;20131;-76
2022/01/11 00:33:45;;;;;;;82.10;32.27;;;;;;;0.75;100.00;102743.16;5045365;28;20107;-76
2022/01/11 00:36:11;;;;;;;83.28;31.75;;;;;;;0.75;100.00;102743.16;5024489;28;20276;-75
2022/01/11 00:38:39;;;;;;;76.30;29.52;;;;;;;0.76;100.00;102729.06;5041060;28;20058;-76
2022/01/11 00:41:14;;;;;;;80.57;28.85;;;;;;;0.74;100.00;102719.53;5052575;28;20063;-76
2022/01/11 00:43:41;;;;;;;74.07;26.23;;;;;;;0.79;100.00;102717.59;5027521;28;20087;-76
2022/01/11 00:46:07;;;;;;;58.25;23.50;;;;;;;0.79;100.00;102707.94;5033633;28;20082;-76
2022/01/11 00:48:35;;;;;;;61.67;27.02;;;;;;;0.96;100.00;102723.16;5027609;28;20445;-76
2022/01/11 00:51:01;;;;;;;59.05;22.63;;;;;;;0.99;100.00;102709.03;5019512;28;20037;-76
2022/01/11 00:53:27;;;;;;;62.63;25.52;;;;;;;0.94;100.00;102682.03;5027886;28;20037;-76
2022/01/11 00:55:52;;;;;;;51.83;21.27;;;;;;;0.93;100.00;102672.41;5027374;28;20068;-76
2022/01/11 00:58:19;;;;;;;56.45;24.15;;;;;;;0.89;100.00;102660.28;5052701;28;20029;-76
2022/01/11 01:00:45;;;;;;;58.45;24.23;;;;;;;0.90;100.00;102660.25;5044065;28;20520;-75
2022/01/11 01:03:11;;;;;;;63.63;24.50;;;;;;;0.82;100.00;102634.22;5035504;28;20037;-76
2022/01/11 01:05:36;;;;;;;65.80;24.33;;;;;;;0.92;100.00;102653.16;5052156;28;20033;-76
2022/01/11 01:08:05;;;;;;;62.55;21.98;;;;;;;0.91;100.00;102627.75;5052451;28;20024;-75
2022/01/11 01:10:37;;;;;;;57.55;23.17;;;;;;;0.81;100.00;102616.69;5027503;28;20033;-76
2022/01/11 01:13:13;;;;;;;58.05;23.27;;;;;;;0.84;100.00;102621.88;5043842;28;20029;-74
2022/01/11 01:15:38;;;;;;;55.08;20.38;;;;;;;0.86;100.00;102618.31;5027344;28;20617;-76
2022/01/11 01:18:16;;;;;;;51.97;20.90;;;;;;;0.87;100.00;102612.13;5024270;28;20411;-75
2022/01/11 01:20:44;;;;;;;65.28;25.33;;;;;;;0.93;100.00;102614.56;5049694;28;20053;-76
2022/01/11 01:23:09;;;;;;;55.78;23.58;;;;;;;0.92;100.00;102612.84;5023891;28;20033;-76
2022/01/11 01:25:35;;;;;;;61.90;23.65;;;;;;;0.89;100.00;102594.53;5041123;28;20470;-76
2022/01/11 01:28:00;;;;;;;54.40;22.20;;;;;;;0.95;100.00;102607.47;5027316;28;20035;-76
2022/01/11 01:30:25;;;;;;;59.10;21.73;;;;;;;0.99;100.00;102603.84;5052249;28;20761;-76
2022/01/11 01:32:52;;;;;;;47.90;20.30;;;;;;;0.96;100.00;102598.66;5030529;28;20029;-76
2022/01/11 01:35:21;;;;;;;54.20;21.45;;;;;;;0.93;100.00;102590.88;5047141;28;20056;-75
2022/01/11 01:37:47;;;;;;;54.33;20.17;;;;;;;0.90;100.00;102583.13;5048597;28;20037;-76
2022/01/11 01:40:17;;;;;;;45.63;19.73;;;;;;;0.88;100.00;102585.78;5055763;28;20031;-75
2022/01/11 01:42:44;;;;;;;49.03;20.98;;;;;;;1.00;100.00;102595.88;5048555;28;20107;-76
2022/01/11 01:45:11;;;;;;;51.08;20.67;;;;;;;0.98;100.00;102591.56;5047242;28;20111;-76
2022/01/11 01:47:36;;;;;;;47.45;20.73;;;;;;;0.97;100.00;102595.97;5030578;28;20094;-76
2022/01/11 01:50:03;;;;;;;48.63;19.33;;;;;;;0.98;100.00;102597.72;5027466;28;20699;-75
2022/01/11 01:52:28;;;;;;;42.65;17.48;;;;;;;0.95;100.00;102596.94;5043978;28;20021;-76
2022/01/11 01:54:55;;;;;;;47.95;20.08;;;;;;;1.05;100.00;102603.59;5030234;28;20032;-74
2022/01/11 01:57:21;;;;;;;47.47;19.23;;;;;;;1.04;100.00;102601.88;5030521;28;20036;-76
2022/01/11 01:59:46;;;;;;;44.17;20.13;;;;;;;1.02;100.00;102598.44;5055476;28;20048;-75
2022/01/11 02:02:13;;;;;;;47.00;20.00;;;;;;;1.13;100.00;102611.22;5056160;28;20044;-77
2022/01/11 02:04:39;;;;;;;46.60;18.67;;;;;;;1.09;100.00;102609.63;5031228;28;20032;-75
2022/01/11 02:07:05;;;;;;;50.60;21.25;;;;;;;0.98;100.00;102596.84;5046884;28;20025;-77
2022/01/11 02:09:30;;;;;;;46.07;20.50;;;;;;;0.93;100.00;102593.53;5031466;28;20044;-76
2022/01/11 02:11:56;;;;;;;44.75;19.52;;;;;;;1.04;100.00;102612.41;5031541;28;20060;-77
2022/01/11 02:14:22;;;;;;;48.42;21.33;;;;;;;1.05;100.00;102620.25;5056056;28;20123;-77
2022/01/11 02:16:47;;;;;;;55.20;22.73;;;;;;;0.97;100.00;102606.50;5029408;28;20087;-77
2022/01/11 02:19:13;;;;;;;52.88;20.83;;;;;;;1.08;100.00;102624.53;5056240;28;20055;-74
2022/01/11 02:21:39;;;;;;;55.75;24.95;;;;;;;1.01;100.00;102609.91;5031226;28;20076;-73
2022/01/11 02:24:05;;;;;;;54.13;22.37;;;;;;;0.97;100.00;102605.66;5030781;28;20067;-76
2022/01/11 02:26:33;;;;;;;54.10;22.05;;;;;;;0.93;100.00;102609.28;5031291;28;20286;-76
2022/01/11 02:29:00;;;;;;;58.13;21.10;;;;;;;0.92;100.00;102613.72;5030873;28;20021;-75
2022/01/11 02:31:25;;;;;;;58.40;21.00;;;;;;;1.12;100.00;102643.69;5031465;28;20518;-77
2022/01/11 02:33:58;;;;;;;53.45;21.80;;;;;;;1.13;100.00;102637.53;5030637;28;20037;-77
2022/01/11 02:36:30;;;;;;;55.00;21.50;;;;;;;1.00;100.00;102621.31;5047831;28;20910;-77
2022/01/11 02:38:57;;;;;;;57.95;21.23;;;;;;;1.10;100.00;102638.50;5030892;28;20025;-75
2022/01/11 02:41:27;;;;;;;54.30;22.50;;;;;;;1.03;100.00;102634.34;5023272;28;20018;-76
2022/01/11 02:43:54;;;;;;;59.58;21.95;;;;;;;0.98;100.00;102629.28;5022156;28;20845;-74
2022/01/11 02:46:23;;;;;;;54.17;21.00;;;;;;;0.95;100.00;102646.94;5027444;28;20021;-77
2022/01/11 02:48:53;;;;;;;51.10;23.08;;;;;;;0.96;100.00;102646.00;5054232;28;20117;-77
2022/01/11 02:51:19;;;;;;;52.63;22.35;;;;;;;1.02;100.00;102654.53;5030505;28;20445;-74
2022/01/11 02:53:51;;;;;;;55.45;22.30;;;;;;;0.87;100.00;102636.69;5028390;28;20592;-74
2022/01/11 02:56:19;;;;;;;53.08;22.67;;;;;;;0.89;100.00;102649.75;5030595;28;20033;-77
2022/01/11 02:58:44;;;;;;;58.40;23.20;;;;;;;0.96;100.00;102667.03;5030819;28;20032;-76
2022/01/11 03:01:11;;;;;;;57.85;22.05;;;;;;;0.94;100.00;102671.53;5027268;28;20059;-77
2022/01/11 03:03:37;;;;;;;58.53;25.55;;;;;;;0.84;100.00;102658.69;5043714;28;20028;-75
2022/01/11 03:06:04;;;;;;;58.03;21.08;;;;;;;0.86;100.00;102660.41;5030862;28;20039;-77
2022/01/11 03:08:42;;;;;;;53.28;22.13;;;;;;;0.92;100.00;102683.88;5030781;28;20037;-75
2022/01/11 03:11:11;;;;;;;52.92;20.88;;;;;;;0.99;100.00;102693.25;5030401;28;20048;-77
2022/01/11 03:13:43;;;;;;;48.88;21.17;;;;;;;0.94;100.00;102689.94;5030159;28;20082;-77
2022/01/11 03:16:09;;;;;;;50.95;21.05;;;;;;;1.10;100.00;102727.97;5022326;28;20145;-76
2022/01/11 03:18:34;;;;;;;;;;;;;;;1.13;100.00;102717.31;5031147;28;20497;-76
2022/01/11 03:21:02;;;;;;;50.63;20.75;;;;;;;1.05;100.00;102693.03;5030146;28;19913;-75
2022/01/11 03:23:28;;;;;;;51.75;20.35;;;;;;;1.07;100.00;102685.94;5013983;28;20024;-76
2022/01/11 03:25:54;;;;;;;46.85;20.00;;;;;;;0.98;100.00;102670.47;5030070;28;20911;-75
2022/01/11 03:28:21;;;;;;;48.03;20.00;;;;;;;0.98;100.00;102681.88;5030322;28;20021;-77
2022/01/11 03:30:48;;;;;;;52.75;20.77;;;;;;;1.06;100.00;102694.75;5046958;28;20036;-77
2022/01/11 03:33:14;;;;;;;50.65;21.40;;;;;;;1.09;100.00;102697.28;5055035;28;20029;-75
2022/01/11 03:35:43;;;;;;;39.00;18.88;;;;;;;1.04;100.00;102686.06;5052711;28;20132;-76
2022/01/11 03:38:11;;;;;;;46.92;18.10;;;;;;;1.04;100.00;102691.31;5030210;28;20468;-75
2022/01/11 03:40:38;;;;;;;45.20;19.25;;;;;;;1.02;100.00;102680.00;5021998;28;20037;-77
2022/01/11 03:43:06;;;;;;;51.55;20.90;;;;;;;0.96;100.00;102673.19;5030047;28;20021;-74
2022/01/11 03:45:31;;;;;;;47.67;20.40;;;;;;;1.05;100.00;102687.75;5030842;28;20029;-77
2022/01/11 03:48:04;;;;;;;44.97;21.10;;;;;;;1.08;100.00;102687.69;5027011;28;20021;-77
2022/01/11 03:50:30;;;;;;;40.75;18.02;;;;;;;1.00;100.00;102672.16;5050886;28;20516;-77
2022/01/11 03:53:00;;;;;;;40.95;19.42;;;;;;;1.11;100.00;102695.47;5030156;28;20021;-76
2022/01/11 03:55:59;;;;;;;41.92;18.52;;;;;;;1.02;100.00;102677.38;5020782;28;20681;-77
2022/01/11 03:58:29;;;;;;;37.63;17.05;;;;;;;0.95;100.00;102665.34;5025714;28;20056;-74
2022/01/11 04:00:57;;;;;;;49.05;18.75;;;;;;;0.98;100.00;102681.00;5029975;28;20653;-77
2022/01/11 04:03:24;;;;;;;45.38;19.25;;;;;;;0.95;100.00;102678.50;5045788;28;20083;-77
2022/01/11 04:05:50;;;;;;;46.85;17.70;;;;;;;0.89;100.00;102678.69;5035064;28;20090;-76
2022/01/11 04:08:15;;;;;;;47.88;19.85;;;;;;;0.88;100.00;102687.50;5054971;28;20024;-77
2022/01/11 04:10:41;;;;;;;39.38;16.30;;;;;;;0.91;100.00;102700.53;5029509;28;20387;-75
2022/01/11 04:13:06;;;;;;;43.40;18.05;;;;;;;0.84;100.00;102695.50;5054559;28;20371;-77
2022/01/11 04:15:32;;;;;;;47.53;17.90;;;;;;;0.84;100.00;102692.88;5054440;28;20442;-76
2022/01/11 04:17:59;;;;;;;37.78;17.27;;;;;;;0.80;100.00;102709.66;5029142;28;20089;-74
2022/01/11 04:20:24;;;;;;;44.58;19.45;;;;;;;0.91;100.00;102717.16;5029453;28;20041;-75
2022/01/11 04:22:50;;;;;;;39.17;15.82;;;;;;;0.87;100.00;102712.94;5054112;28;20049;-77
2022/01/11 04:25:17;;;;;;;35.78;16.90;;;;;;;0.89;100.00;102713.75;5054129;28;20029;-75
2022/01/11 04:27:43;;;;;;;42.47;16.42;;;;;;;0.86;100.00;102705.09;5054571;28;20839;-75
2022/01/11 04:30:10;;;;;;;32.85;16.77;;;;;;;0.83;100.00;102704.28;5029142;28;20032;-75
2022/01/11 04:32:37;;;;;;;34.75;15.90;;;;;;;0.89;100.00;102713.75;5047124;28;20501;-76
2022/01/11 04:35:03;;;;;;;33.53;14.40;;;;;;;0.82;100.00;102693.84;5021266;28;20041;-77
2022/01/11 04:37:29;;;;;;;41.47;18.13;;;;;;;0.81;100.00;102703.47;5029564;28;20112;-74
2022/01/11 04:39:54;;;;;;;33.67;15.35;;;;;;;0.77;100.00;102686.09;5029421;28;20123;-76
2022/01/11 04:42:20;;;;;;;31.55;14.77;;;;;;;0.80;100.00;102688.63;5029243;28;20032;-77
2022/01/11 04:44:46;;;;;;;37.63;15.32;;;;;;;0.84;100.00;102710.41;5029020;28;20474;-77
2022/01/11 04:47:11;;;;;;;40.75;16.67;;;;;;;0.77;100.00;102683.47;5013141;28;20043;-77
2022/01/11 04:49:37;;;;;;;37.08;14.77;;;;;;;0.87;100.00;102712.94;5026173;28;20034;-77
2022/01/11 04:52:04;;;;;;;38.67;15.90;;;;;;;0.76;100.00;102680.88;5029441;28;20056;-76
2022/01/11 04:54:30;;;;;;;31.45;14.15;;;;;;;0.79;100.00;102697.41;5028970;28;20140;-77
2022/01/11 04:56:56;;;;;;;33.55;14.52;;;;;;;0.78;100.00;102687.81;5029447;28;20028;-77
2022/01/11 04:59:24;;;;;;;34.72;15.25;;;;;;;0.74;100.00;102682.72;5054001;28;20697;-77
2022/01/11 05:01:49;;;;;;;34.47;15.50;;;;;;;0.78;100.00;102705.38;5046608;28;20087;-77
2022/01/11 05:04:16;;;;;;;34.42;14.77;;;;;;;0.78;100.00;102690.44;5025687;28;20478;-77
2022/01/11 05:06:41;;;;;;;38.10;15.90;;;;;;;0.75;100.00;102690.56;5045400;28;20029;-77
2022/01/11 05:09:07;;;;;;;37.33;16.17;;;;;;;0.77;100.00;102696.63;5029892;28;20034;-77
2022/01/11 05:11:32;;;;;;;32.55;15.52;;;;;;;0.81;100.00;102700.00;5053538;28;20449;-76
2022/01/11 05:13:58;;;;;;;38.38;16.15;;;;;;;0.68;100.00;102683.78;5032188;28;20904;-77
2022/01/11 05:16:38;;;;;;;30.58;14.40;;;;;;;0.81;100.00;102716.63;5052305;28;20055;-75
2022/01/11 05:19:06;;;;;;;31.95;15.27;;;;;;;0.91;100.00;102729.47;5049476;28;20073;-75
2022/01/11 05:21:32;;;;;;;30.67;14.10;;;;;;;0.92;100.00;102725.94;5032458;28;20021;-78
2022/01/11 05:23:58;;;;;;;32.47;13.82;;;;;;;0.91;100.00;102711.06;5039702;28;20926;-77
2022/01/11 05:26:23;;;;;;;32.67;14.70;;;;;;;0.82;100.00;102688.59;5057002;28;20033;-74
2022/01/11 05:28:49;;;;;;;32.30;14.13;;;;;;;0.90;100.00;102718.09;5029846;28;20132;-74
2022/01/11 05:31:14;;;;;;;33.17;15.05;;;;;;;0.94;100.00;102717.09;5032284;28;20275;-76
2022/01/11 05:33:40;;;;;;;33.03;15.43;;;;;;;0.93;100.00;102712.72;5032604;28;20048;-77
2022/01/11 05:36:05;;;;;;;33.53;13.80;;;;;;;0.95;100.00;102707.41;5035836;28;20066;-77
2022/01/11 05:38:33;;;;;;;33.25;14.45;;;;;;;0.89;100.00;102697.97;5038571;28;20513;-78
2022/01/11 05:40:58;;;;;;;34.53;15.07;;;;;;;0.89;100.00;102702.34;5016450;28;20017;-75
2022/01/11 05:43:24;;;;;;;35.38;15.70;;;;;;;0.91;100.00;102706.66;5040795;28;20296;-74
2022/01/11 05:45:49;;;;;;;34.67;14.63;;;;;;;0.91;100.00;102703.16;5036624;28;20028;-77
2022/01/11 05:48:16;;;;;;;31.88;14.35;;;;;;;1.02;100.00;102732.59;5032991;28;20283;-76
2022/01/11 05:50:43;;;;;;;34.28;15.80;;;;;;;0.99;100.00;102724.81;5060974;28;20028;-77
2022/01/11 05:53:10;;;;;;;31.45;14.35;;;;;;;1.07;100.00;102727.19;5032512;28;20033;-76
2022/01/11 05:55:35;;;;;;;27.92;13.52;;;;;;;0.91;100.00;102705.81;5032361;28;20416;-77
2022/01/11 05:58:01;;;;;;;36.08;15.25;;;;;;;0.99;100.00;102715.16;5042146;28;20025;-77
2022/01/11 06:00:26;;;;;;;34.58;16.20;;;;;;;0.96;100.00;102710.00;5032376;28;20060;-77
2022/01/11 06:02:54;;;;;;;36.50;14.95;;;;;;;0.89;100.00;102705.88;5031397;28;20033;-76
2022/01/11 06:05:38;;;;;;;34.75;15.48;;;;;;;0.96;100.00;102720.53;5032179;28;20025;-78
2022/01/11 06:08:04;;;;;;;36.42;14.90;;;;;;;0.89;100.00;102699.72;5018747;28;20032;-75
2022/01/11 06:10:29;;;;;;;;;;;;;;;0.95;100.00;102723.19;5033003;28;20029;-77
2022/01/11 06:12:55;;;;;;;34.33;13.57;;;;;;;0.95;100.00;102720.56;5031867;28;20293;-77
2022/01/11 06:15:20;;;;;;;39.45;15.80;;;;;;;0.90;100.00;102727.75;5048829;28;20637;-76
2022/01/11 06:17:46;;;;;;;43.38;17.88;;;;;;;0.91;100.00;102722.44;5031255;28;20051;-77
2022/01/11 06:20:12;;;;;;;41.15;16.58;;;;;;;0.94;100.00;102738.13;5016129;28;20056;-77
2022/01/11 06:22:38;;;;;;;35.75;14.55;;;;;;;1.12;100.00;102772.59;5032259;28;20123;-77
2022/01/11 06:25:05;;;;;;;38.13;15.40;;;;;;;1.05;100.00;102740.38;5032292;28;20140;-74
2022/01/11 06:27:32;;;;;;;36.00;16.65;;;;;;;0.96;100.00;102738.06;5031483;28;20044;-76
2022/01/11 06:29:58;;;;;;;40.33;16.73;;;;;;;0.89;100.00;102726.03;5031384;28;20085;-77
2022/01/11 06:32:24;;;;;;;36.72;15.48;;;;;;;0.79;100.00;102712.34;5055962;28;20442;-74
2022/01/11 06:34:52;;;;;;;38.28;15.38;;;;;;;0.86;100.00;102741.91;5029542;28;20033;-77
2022/01/11 06:37:18;;;;;;;42.28;15.43;;;;;;;0.90;100.00;102767.22;5028078;28;20204;-76
2022/01/11 06:39:44;;;;;;;38.65;16.58;;;;;;;0.99;100.00;102788.81;5015176;28;20089;-74
2022/01/11 06:42:09;;;;;;;40.72;18.27;;;;;;;1.01;100.00;102791.41;5056109;28;20028;-76
2022/01/11 06:44:37;;;;;;;31.90;15.85;;;;;;;1.00;100.00;102789.66;5055409;28;20028;-75
2022/01/11 06:47:04;;;;;;;40.15;16.50;;;;;;;1.16;100.00;102808.44;5023829;28;20040;-77
2022/01/11 06:49:31;;;;;;;39.33;16.92;;;;;;;1.08;100.00;102800.81;5050004;28;20032;-76
2022/01/11 06:51:56;;;;;;;48.37;17.50;;;;;;;1.09;100.00;102802.50;5057722;28;20033;-76
2022/01/11 06:54:22;;;;;;;42.13;17.00;;;;;;;1.02;100.00;102793.97;5034300;28;20116;-75
2022/01/11 06:56:50;;;;;;;39.35;15.85;;;;;;;0.97;100.00;102787.16;5040643;28;20048;-75
2022/01/11 06:59:16;;;;;;;;;;;;;;;1.03;100.00;102808.84;5032161;28;20021;-77
2022/01/11 07:01:42;;;;;;;37.55;16.38;;;;;;;0.99;100.00;102793.22;5039680;28;19916;-78
2022/01/11 07:04:20;;;;;;;37.45;15.73;;;;;;;0.97;100.00;102800.28;5031794;28;20071;-75
2022/01/11 07:06:49;;;;;;;35.13;15.50;;;;;;;1.01;100.00;102808.03;5032115;28;20071;-74
2022/01/11 07:09:16;;;;;;;37.88;15.57;;;;;;;1.15;100.00;102841.78;5028306;28;20529;-77
2022/01/11 07:11:41;;;;;;;38.87;17.30;;;;;;;1.12;100.00;102835.75;5042309;28;20026;-77
2022/01/11 07:14:07;;;;;;;39.23;15.53;;;;;;;1.11;100.00;102818.25;5030624;28;20354;-77
2022/01/11 07:16:33;;;;;;;;;;;;;;;1.11;100.00;102816.47;5031610;28;20875;-75
2022/01/11 07:19:00;;;;;;;37.85;16.35;;;;;;;0.99;100.00;102793.22;5030466;28;19948;-77
2022/01/11 07:21:26;;;;;;;39.50;16.85;;;;;;;1.01;100.00;102797.50;5030785;28;20041;-77
2022/01/11 07:23:51;;;;;;;43.27;19.57;;;;;;;1.13;100.00;102829.59;5031309;28;20054;-76
2022/01/11 07:26:17;;;;;;;46.83;17.63;;;;;;;1.08;100.00;102807.81;5032517;28;20056;-77
2022/01/11 07:28:43;;;;;;;36.20;14.93;;;;;;;1.10;100.00;102812.16;5026741;28;20370;-77
2022/01/11 07:31:14;;;;;;;46.58;16.02;;;;;;;1.20;100.00;102842.50;5031995;28;20036;-76
2022/01/11 07:33:44;;;;;;;46.30;19.20;;;;;;;1.14;100.00;102826.91;5023811;28;20036;-78
2022/01/11 07:36:10;;;;;;;48.20;19.40;;;;;;;1.01;100.00;102804.56;5027972;28;20035;-77
2022/01/11 07:38:37;;;;;;;;;;;;;;;1.05;100.00;102829.81;5032583;28;20032;-76
2022/01/11 07:41:07;;;;;;;57.13;19.15;;;;;;;0.96;100.00;102820.47;5044695;28;20496;-76
2022/01/11 07:43:53;;;;;;;55.03;21.17;;;;;;;0.97;100.00;102826.59;5044165;28;20857;-75
2022/01/11 07:46:23;;;;;;;58.05;20.10;;;;;;;0.92;100.00;102849.56;5027967;28;20072;-75
2022/01/11 07:48:51;;;;;;;55.33;19.55;;;;;;;0.91;100.00;102858.34;5028074;28;20033;-77
2022/01/11 07:51:17;;;;;;;;;;;;;;;0.99;100.00;102880.03;5031080;28;20020;-77
2022/01/11 07:53:44;;;;;;;61.47;20.85;;;;;;;0.93;100.00;102880.19;5047535;28;19924;-75
2022/01/11 07:56:14;;;;;;;65.63;20.63;;;;;;;0.88;100.00;102896.13;5038230;28;20112;-75
2022/01/11 07:58:40;;;;;;;76.75;24.33;;;;;;;0.95;100.00;102913.44;5033018;28;20465;-76
2022/01/11 08:01:08;;;;;;;61.60;22.02;;;;;;;1.08;100.00;102934.97;5032848;28;20039;-74
2022/01/11 08:03:38;;;;;;;65.93;24.23;;;;;;;1.00;100.00;102931.72;5045375;28;20065;-75
2022/01/11 08:06:10;;;;;;;72.50;21.73;;;;;;;1.00;100.00;102943.09;5027588;28;20487;-76
2022/01/11 08:08:38;;;;;;;75.93;21.58;;;;;;;1.04;100.00;102951.75;5023409;28;20663;-78
2022/01/11 08:11:07;;;;;;;78.05;25.13;;;;;;;1.04;100.00;102959.66;5028707;28;20024;-77
2022/01/11 08:13:33;;;;;;;62.42;24.00;;;;;;;1.10;100.00;102963.84;5049136;28;20020;-77
2022/01/11 08:15:59;;;;;;;70.85;23.77;;;;;;;0.99;100.00;102958.94;5020012;28;20025;-76
2022/01/11 08:18:25;;;;;;;79.30;22.55;;;;;;;1.10;100.00;102977.00;5032600;28;20568;-77
2022/01/11 08:20:50;;;;;;;77.28;22.60;;;;;;;1.17;100.00;102997.84;5013426;28;20100;-77
2022/01/11 08:23:17;;;;;;;67.40;21.27;;;;;;;1.16;100.00;102993.47;5032722;28;20439;-77
2022/01/11 08:25:43;;;;;;;73.97;21.70;;;;;;;1.17;100.00;103013.63;5032274;28;20017;-75
2022/01/11 08:28:09;;;;;;;62.63;20.73;;;;;;;1.25;100.00;103011.63;5047870;28;20039;-77
2022/01/11 08:30:36;;;;;;;69.57;24.60;;;;;;;1.32;100.00;103014.06;5050418;28;20029;-76
2022/01/11 08:33:06;;;;;;;62.55;22.58;;;;;;;1.36;100.00;103035.00;5028885;28;20484;-76
2022/01/11 08:35:33;;;;;;;64.07;22.75;;;;;;;1.30;100.00;103018.53;5045063;28;20036;-77
2022/01/11 08:37:59;;;;;;;64.90;22.48;;;;;;;1.25;100.00;103022.16;5045021;28;20032;-75
2022/01/11 08:40:26;;;;;;;64.97;21.63;;;;;;;1.35;100.00;103030.63;5027746;28;20383;-75
2022/01/11 08:42:56;;;;;;;70.18;22.52;;;;;;;1.33;100.00;103040.31;5031300;28;20406;-75
2022/01/11 08:45:22;;;;;;;80.35;25.25;;;;;;;1.26;100.00;103034.41;5056268;28;20044;-76
2022/01/11 08:47:51;;;;;;;70.80;22.98;;;;;;;1.24;100.00;103035.34;5047619;28;20029;-75
2022/01/11 08:50:18;;;;;;;67.72;20.48;;;;;;;1.30;100.00;103061.47;5028312;28;20398;-75
2022/01/11 08:52:45;;;;;;;72.82;22.48;;;;;;;1.29;100.00;103049.25;5029466;28;20024;-76
2022/01/11 08:55:15;;;;;;;68.18;22.13;;;;;;;1.44;100.00;103067.19;5050829;28;20140;-75
2022/01/11 08:57:41;;;;;;;68.97;20.77;;;;;;;1.48;100.00;103065.34;5029109;28;20034;-75
2022/01/11 09:00:13;;;;;;;;;;;;;;;1.40;100.00;103052.38;5048476;28;20978;-75
2022/01/11 09:02:40;;;;;;;68.90;21.73;;;;;;;1.29;100.00;103033.47;5029624;28;19924;-75
2022/01/11 09:05:06;;;;;;;69.90;23.92;;;;;;;1.28;100.00;103050.13;5031154;28;20036;-75
2022/01/11 09:07:34;;;;;;;78.18;26.73;;;;;;;1.29;100.00;103058.88;5053569;28;20132;-75
2022/01/11 09:10:01;;;;;;;72.68;23.13;;;;;;;1.36;100.00;103077.09;5031210;28;20162;-75
2022/01/11 09:12:26;;;;;;;77.82;21.90;;;;;;;1.43;100.00;103078.66;5040620;28;20112;-75
2022/01/11 09:14:52;;;;;;;68.55;21.77;;;;;;;1.46;100.00;103075.06;5030910;28;20401;-75
2022/01/11 09:17:19;;;;;;;68.55;21.00;;;;;;;1.57;100.00;103093.13;5031459;28;20119;-75
2022/01/11 09:19:45;;;;;;;72.50;23.25;;;;;;;1.48;100.00;103070.59;5034669;28;20035;-75
2022/01/11 09:22:14;;;;;;;61.65;20.70;;;;;;;1.56;100.00;103073.00;5013753;28;20263;-75
2022/01/11 09:24:41;;;;;;;66.88;23.83;;;;;;;1.58;100.00;103077.31;5048521;28;20016;-75
2022/01/11 09:27:11;;;;;;;68.57;22.45;;;;;;;1.74;100.00;103087.38;5034077;28;20040;-75
2022/01/11 09:29:41;;;;;;;70.57;20.80;;;;;;;1.75;100.00;103071.50;5017506;28;20056;-75
2022/01/11 09:32:08;;;;;;;60.28;19.73;;;;;;;1.72;100.00;103055.81;5056141;28;20024;-74
2022/01/11 09:34:37;;;;;;;61.65;21.00;;;;;;;1.77;100.00;103055.66;5034811;28;20033;-75
2022/01/11 09:37:04;;;;;;;55.05;20.08;;;;;;;1.91;100.00;103071.88;5031667;28;20683;-75
2022/01/11 09:39:29;;;;;;;67.68;24.02;;;;;;;1.84;100.00;103044.03;5036970;28;20025;-75
2022/01/11 09:41:58;;;;;;;60.00;21.80;;;;;;;1.87;100.00;103036.00;5047399;28;20036;-75
2022/01/11 09:44:26;;;;;;;67.13;20.02;;;;;;;1.94;100.00;103042.78;5033228;28;20040;-75
2022/01/11 09:46:53;;;;;;;59.35;20.17;;;;;;;2.00;100.00;103042.59;5032298;28;20033;-75
2022/01/11 09:49:18;;;;;;;58.95;20.85;;;;;;;2.12;100.00;103043.97;5031632;28;20056;-75
2022/01/11 09:51:47;;;;;;;54.58;19.38;;;;;;;2.19;100.00;103039.34;5035393;28;20052;-75
2022/01/11 09:54:12;;;;;;;60.92;21.25;;;;;;;2.25;100.00;103036.53;5043622;28;20276;-75
2022/01/11 09:56:41;;;;;;;67.07;21.33;;;;;;;2.28;100.00;103025.88;5053689;28;20099;-75
2022/01/11 09:59:10;;;;;;;69.22;21.92;;;;;;;2.32;100.00;103014.31;5031204;28;20508;-75
2022/01/11 10:01:54;;;;;;;56.13;18.15;;;;;;;2.22;100.00;102990.03;5047320;28;20279;-75
2022/01/11 10:04:40;;;;;;;;;;;;;;;2.35;100.00;102993.09;5046198;28;20037;-74
2022/01/11 10:07:37;;;;;;;44.55;17.15;;;;;;;2.31;100.00;102962.47;5036737;28;20389;-75
2022/01/11 10:10:04;;;;;;;50.90;20.08;;;;;;;2.39;100.00;102959.56;5028599;28;20442;-75
2022/01/11 10:12:42;;;;;;;55.10;17.13;;;;;;;2.43;100.00;102964.66;5052825;28;20526;-75
2022/01/11 10:15:07;;;;;;;42.05;16.35;;;;;;;2.52;100.00;102958.22;5034322;28;20048;-75
2022/01/11 10:17:39;;;;;;;42.13;16.08;;;;;;;2.43;100.00;102925.13;5050468;28;20028;-75
2022/01/11 10:20:10;;;;;;;43.25;16.70;;;;;;;2.47;100.00;102923.25;5027757;28;20037;-75
2022/01/11 10:23:07;;;;;;;41.03;16.08;;;;;;;2.50;100.00;102904.66;5023151;28;20076;-75
2022/01/11 10:25:45;;;;;;;41.65;15.10;;;;;;;2.61;100.00;102914.81;5034718;28;20479;-75
2022/01/11 10:28:11;;;;;;;41.30;13.98;;;;;;;2.58;100.00;102894.72;5029849;28;20163;-75
2022/01/11 10:30:40;;;;;;;38.97;14.30;;;;;;;2.65;100.00;102895.34;5018249;28;20017;-76
2022/01/11 10:33:09;;;;;;;37.67;13.45;;;;;;;2.79;100.00;102914.13;5031623;28;20028;-75
2022/01/11 10:35:42;;;;;;;41.38;13.77;;;;;;;2.62;100.00;102871.69;5031259;28;20490;-75
2022/01/11 10:38:22;;;;;;;36.65;14.20;;;;;;;2.68;100.00;102869.69;5048739;28;20398;-75
2022/01/11 10:40:48;;;;;;;32.40;13.73;;;;;;;2.72;100.00;102852.84;5034960;28;20033;-75
2022/01/11 10:43:18;;;;;;;43.28;13.57;;;;;;;2.58;100.00;102835.84;5043242;28;20028;-75
2022/01/11 10:45:46;;;;;;;45.53;14.27;;;;;;;2.50;100.00;102818.50;5031903;28;20094;-75
2022/01/11 10:48:22;;;;;;;35.15;13.70;;;;;;;2.53;100.00;102820.19;5037181;28;20595;-75
2022/01/11 10:50:52;;;;;;;30.45;14.68;;;;;;;2.43;100.00;102811.75;5043802;28;20037;-75
2022/01/11 10:53:38;;;;;;;39.10;14.95;;;;;;;2.46;100.00;102805.53;5042376;28;20029;-75
2022/01/11 10:56:04;;;;;;;;;;;;;;;2.38;100.00;102808.44;5034828;28;20047;-76
2022/01/11 10:58:36;;;;;;;42.38;15.77;;;;;;;2.32;100.00;102790.25;5023090;28;19917;-75
2022/01/11 11:01:04;;;;;;;44.83;17.33;;;;;;;2.32;100.00;102790.25;5019715;28;21689;-75
2022/01/11 11:03:32;;;;;;;47.03;17.58;;;;;;;2.45;100.00;102816.97;5033479;28;20676;-75
2022/01/11 11:06:07;;;;;;;38.90;14.20;;;;;;;2.31;100.00;102799.03;5028799;28;20021;-75
2022/01/11 11:08:45;;;;;;;47.25;17.70;;;;;;;2.46;100.00;102809.00;5028588;28;20533;-76
2022/01/11 11:11:23;;;;;;;36.47;14.40;;;;;;;2.44;100.00;102800.31;5041043;28;20041;-75
2022/01/11 11:14:08;;;;;;;35.83;15.60;;;;;;;2.43;100.00;102798.56;5044317;28;20052;-75
2022/01/11 11:16:37;;;;;;;36.90;16.75;;;;;;;2.49;100.00;102808.88;5029683;28;20041;-75
2022/01/11 11:19:04;;;;;;;33.50;15.60;;;;;;;2.59;100.00;102808.53;5043545;28;20037;-75
2022/01/11 11:21:52;;;;;;;32.63;13.30;;;;;;;2.63;100.00;102812.78;5018358;28;20176;-74